createdAt,value
2023-03-21T00:02:45.511Z,19.70
2023-03-21T00:06:12.943Z,19.50
2023-03-21T00:09:37.542Z,20.08
2023-03-21T00:13:02.244Z,20.60
2023-03-21T00:16:33.180Z,18.73
2023-03-21T00:19:59.768Z,18.50
2023-03-21T00:23:25.480Z,20.15
2023-03-21T00:26:50.205Z,20.30
2023-03-21T00:30:15.249Z,19.15
2023-03-21T00:33:40.171Z,18.92
2023-03-21T00:37:04.046Z,18.53
2023-03-21T00:40:35.290Z,18.95
2023-03-21T00:44:06.756Z,18.10
2023-03-21T00:47:31.478Z,19.55
2023-03-21T00:50:56.195Z,20.62
2023-03-21T00:54:21.203Z,19.10
2023-03-21T00:57:50.192Z,19.77
2023-03-21T01:01:21.956Z,21.67
2023-03-21T01:04:46.048Z,20.70
2023-03-21T01:08:23.009Z,21.15
2023-03-21T01:11:51.258Z,20.00
2023-03-21T01:15:17.639Z,19.00
2023-03-21T01:18:41.930Z,18.60
2023-03-21T01:22:06.443Z,19.27
2023-03-21T01:25:30.180Z,19.62
2023-03-21T01:28:55.205Z,20.03
2023-03-21T01:32:20.792Z,21.87
2023-03-21T01:35:53.342Z,22.17
2023-03-21T01:39:24.790Z,22.50
2023-03-21T01:42:49.684Z,24.37
2023-03-21T01:46:49.641Z,21.43
2023-03-21T01:50:23.525Z,21.10
2023-03-21T01:53:48.841Z,21.37
2023-03-21T01:57:15.996Z,20.50
2023-03-21T02:00:39.926Z,23.60
2023-03-21T02:04:09.563Z,23.37
2023-03-21T02:07:42.424Z,22.55
2023-03-21T02:11:10.349Z,23.30
2023-03-21T02:14:37.096Z,22.70
2023-03-21T02:18:04.980Z,23.50
2023-03-21T02:21:57.381Z,23.20
2023-03-21T02:25:49.266Z,21.83
2023-03-21T02:29:20.019Z,23.55
2023-03-21T02:32:58.197Z,22.77
2023-03-21T02:36:32.215Z,24.65
2023-03-21T02:40:09.206Z,21.90
2023-03-21T02:43:35.784Z,22.02
2023-03-21T02:47:05.873Z,21.12
2023-03-21T02:50:33.803Z,20.92
2023-03-21T02:54:22.185Z,20.35
2023-03-21T02:57:47.433Z,18.43
2023-03-21T03:01:12.864Z,19.75
2023-03-21T03:04:39.257Z,20.37
2023-03-21T03:08:17.143Z,18.65
2023-03-21T03:11:42.218Z,19.08
2023-03-21T03:15:12.105Z,18.00
2023-03-21T03:18:41.239Z,16.77
2023-03-21T03:22:08.892Z,17.80
2023-03-21T03:25:42.529Z,16.65
2023-03-21T03:29:10.070Z,17.25
2023-03-21T03:32:38.137Z,15.60
2023-03-21T03:36:06.527Z,16.55
2023-03-21T03:39:35.172Z,15.65
2023-03-21T03:43:02.538Z,15.00
2023-03-21T03:46:33.727Z,15.93
2023-03-21T03:50:02.665Z,16.37
2023-03-21T03:53:28.979Z,15.07
2023-03-21T03:56:54.269Z,15.10
2023-03-21T04:00:19.481Z,14.80
2023-03-21T04:03:50.439Z,13.52
2023-03-21T04:07:16.846Z,14.40
2023-03-21T04:10:41.816Z,12.30
2023-03-21T04:14:07.245Z,11.85
2023-03-21T04:17:33.618Z,11.12
2023-03-21T04:20:58.868Z,9.48
2023-03-21T04:24:29.813Z,8.90
2023-03-21T04:27:53.923Z,9.55
2023-03-21T04:31:26.049Z,9.90
2023-03-21T04:34:54.641Z,8.38
2023-03-21T04:38:19.808Z,9.32
2023-03-21T04:41:46.733Z,8.90
2023-03-21T04:45:12.498Z,9.95
2023-03-21T04:48:37.235Z,10.30
2023-03-21T04:52:01.744Z,10.15
2023-03-21T04:55:27.122Z,9.98
2023-03-21T04:58:53.492Z,9.77
2023-03-21T05:02:20.576Z,9.32
2023-03-21T05:05:45.424Z,10.50
2023-03-21T05:09:09.689Z,9.40
2023-03-21T05:12:34.361Z,10.23
2023-03-21T05:15:59.749Z,9.77
2023-03-21T05:19:25.023Z,10.48
2023-03-21T05:22:50.593Z,9.98
2023-03-21T05:26:15.690Z,10.52
2023-03-21T05:29:40.751Z,9.40
2023-03-21T05:33:06.937Z,9.27
2023-03-21T05:36:34.439Z,9.52
2023-03-21T05:39:59.308Z,9.88
2023-03-21T05:43:23.242Z,9.50
2023-03-21T05:46:47.735Z,9.75
2023-03-21T05:50:14.901Z,12.30
2023-03-21T05:53:40.196Z,9.95
2023-03-21T05:57:04.247Z,8.38
2023-03-21T06:00:33.753Z,6.72
2023-03-21T06:03:59.723Z,6.75
2023-03-21T06:07:26.212Z,6.70
2023-03-21T06:10:53.601Z,6.55
2023-03-21T06:14:19.537Z,5.90
2023-03-21T06:17:46.738Z,5.80
2023-03-21T06:21:11.502Z,5.43
2023-03-21T06:24:39.172Z,5.70
2023-03-21T06:28:04.329Z,6.55
2023-03-21T06:31:30.404Z,6.62
2023-03-21T06:34:56.165Z,6.57
2023-03-21T06:38:22.024Z,10.25
2023-03-21T06:41:49.980Z,6.80
2023-03-21T06:45:15.662Z,5.45
2023-03-21T06:48:44.916Z,6.15
2023-03-21T06:52:10.610Z,5.50
2023-03-21T06:55:35.304Z,5.78
2023-03-21T06:59:02.731Z,5.70
2023-03-21T07:02:32.270Z,5.55
2023-03-21T07:05:58.348Z,5.55
2023-03-21T07:09:25.070Z,5.60
2023-03-21T07:12:49.951Z,5.47
2023-03-21T07:16:17.008Z,5.33
2023-03-21T07:19:43.836Z,6.10
2023-03-21T07:23:12.459Z,6.10
2023-03-21T07:26:39.084Z,5.05
2023-03-21T07:30:05.262Z,5.25
2023-03-21T07:33:34.903Z,5.03
2023-03-21T07:37:00.374Z,5.18
2023-03-21T07:40:25.525Z,5.95
2023-03-21T07:43:48.639Z,4.72
2023-03-21T07:47:12.420Z,5.43
2023-03-21T07:50:37.999Z,4.10
2023-03-21T07:54:03.900Z,3.08
2023-03-21T07:57:28.211Z,3.53
2023-03-21T08:00:53.939Z,2.95
2023-03-21T08:04:18.508Z,3.40
2023-03-21T08:07:43.789Z,3.80
2023-03-21T08:11:08.725Z,5.18
2023-03-21T08:14:33.534Z,3.62
2023-03-21T08:17:58.192Z,3.28
2023-03-21T08:21:21.468Z,3.33
2023-03-21T08:24:46.573Z,3.80
2023-03-21T08:28:11.102Z,2.80
2023-03-21T08:31:35.815Z,3.58
2023-03-21T08:35:01.224Z,3.45
2023-03-21T08:38:25.348Z,3.42
2023-03-21T08:41:50.936Z,4.03
2023-03-21T08:45:15.533Z,4.00
2023-03-21T08:48:40.158Z,3.55
2023-03-21T08:52:03.754Z,3.55
2023-03-21T08:55:27.026Z,3.55
2023-03-21T08:58:51.751Z,3.17
2023-03-21T09:02:17.944Z,3.42
2023-03-21T09:05:41.628Z,3.08
2023-03-21T09:09:06.227Z,3.15
2023-03-21T09:12:29.806Z,3.53
2023-03-21T09:15:55.194Z,3.40
2023-03-21T09:19:19.753Z,3.10
2023-03-21T09:22:43.543Z,2.37
2023-03-21T09:26:09.717Z,1.77
2023-03-21T09:29:34.802Z,2.20
2023-03-21T09:33:00.865Z,1.93
2023-03-21T09:36:25.140Z,3.03
2023-03-21T09:39:51.644Z,2.97
2023-03-21T09:43:22.420Z,2.55
2023-03-21T09:46:49.122Z,2.92
2023-03-21T09:50:20.906Z,2.40
2023-03-21T09:53:45.385Z,2.30
2023-03-21T09:57:15.351Z,2.62
2023-03-21T10:00:40.767Z,2.67
2023-03-21T10:04:08.656Z,2.62
2023-03-21T10:07:41.150Z,1.53
2023-03-21T10:11:08.388Z,1.25
2023-03-21T10:14:33.600Z,1.87
2023-03-21T10:18:02.042Z,1.60
2023-03-21T10:21:56.638Z,1.48
2023-03-21T10:25:15.519Z,1.90
2023-03-21T10:28:52.306Z,1.60
2023-03-21T10:32:18.406Z,1.67
2023-03-21T10:35:43.339Z,1.87
2023-03-21T10:39:09.146Z,1.60
2023-03-21T10:42:36.750Z,1.20
